Terminal Aerodrome Forecast
Issued by NWS

Home | Current Version | Previous Version | Text Only | Print | Product List | Glossary On
Versions: 1 2 3 4 5 6 7 8 9 10 11 12 13 14 15 16 17 18 19 20 21 22 23 24 25 26 27 28 29
000
FTUS46 KMTR 220500
TAFSFO
TAF
KSFO 220520Z 2206/2312 28006KT P6SM FEW010
     FM221500 VRB03KT P6SM FEW250
     FM221700 27006KT P6SM SCT250
     FM222200 28015KT P6SM SCT250
     FM230300 27008KT P6SM BKN250
     FM230800 26003KT P6SM BKN015=

USA.gov is the U.S. government's official web portal to all federal, state and local government web resources and services.